createdAt,value
2023-05-20T00:01:05.196Z,9.50
2023-05-20T00:03:32.637Z,14.38
2023-05-20T00:05:59.989Z,7.50
2023-05-20T00:08:27.068Z,7.60
2023-05-20T00:10:54.138Z,9.23
2023-05-20T00:13:21.315Z,8.93
2023-05-20T00:15:48.432Z,9.95
2023-05-20T00:18:17.326Z,7.88
2023-05-20T00:20:44.392Z,6.35
2023-05-20T00:23:14.391Z,4.47
2023-05-20T00:25:41.504Z,5.63
2023-05-20T00:28:08.547Z,4.03
2023-05-20T00:30:35.778Z,2.25
2023-05-20T00:33:02.978Z,3.45
2023-05-20T00:35:30.173Z,5.90
2023-05-20T00:37:57.237Z,1.90
2023-05-20T00:40:25.383Z,2.50
2023-05-20T00:42:52.968Z,3.38
2023-05-20T00:45:20.081Z,2.70
2023-05-20T00:47:47.550Z,1.67
2023-05-20T00:50:15.397Z,1.98
2023-05-20T00:52:45.412Z,2.25
2023-05-20T00:55:12.785Z,1.60
2023-05-20T00:57:41.039Z,3.10
2023-05-20T01:00:46.168Z,1.88
2023-05-20T01:03:26.234Z,2.03
2023-05-20T01:06:03.044Z,3.30
2023-05-20T01:08:47.592Z,4.90
2023-05-20T01:12:02.686Z,1.40
2023-05-20T01:14:51.276Z,3.28
2023-05-20T01:17:25.171Z,3.03
2023-05-20T01:20:10.551Z,2.22
2023-05-20T01:23:01.758Z,2.22
2023-05-20T01:25:39.278Z,1.58
2023-05-20T01:28:18.333Z,2.55
2023-05-20T01:31:00.405Z,1.45
2023-05-20T01:33:33.713Z,2.42
2023-05-20T01:36:09.619Z,2.97
2023-05-20T01:38:54.745Z,3.10
2023-05-20T01:41:35.431Z,2.22
2023-05-20T01:44:10.742Z,3.55
2023-05-20T01:46:45.188Z,0.80
2023-05-20T01:49:21.437Z,1.50
2023-05-20T01:52:01.126Z,1.90
2023-05-20T01:54:41.342Z,1.52
2023-05-20T01:57:18.980Z,1.40
2023-05-20T02:03:12.781Z,3.88
2023-05-20T02:05:39.927Z,1.70
2023-05-20T02:08:07.508Z,2.40
2023-05-20T02:10:34.605Z,2.45
2023-05-20T02:13:04.217Z,1.80
2023-05-20T02:15:35.186Z,1.65
2023-05-20T02:18:05.790Z,1.98
2023-05-20T02:20:36.475Z,4.85
2023-05-20T02:23:06.078Z,2.10
2023-05-20T02:25:35.712Z,2.40
2023-05-20T02:28:06.159Z,3.15
2023-05-20T02:30:36.001Z,1.75
2023-05-20T02:33:03.354Z,1.70
2023-05-20T02:35:30.861Z,5.93
2023-05-20T02:37:58.022Z,2.05
2023-05-20T02:40:28.044Z,1.83
2023-05-20T02:42:55.149Z,1.42
2023-05-20T02:45:22.391Z,1.92
2023-05-20T02:47:49.795Z,2.75
2023-05-20T02:50:18.429Z,3.90
2023-05-20T02:52:45.887Z,2.35
2023-05-20T02:55:13.425Z,1.67
2023-05-20T02:57:40.734Z,1.90
2023-05-20T03:00:16.681Z,2.33
2023-05-20T03:02:46.801Z,1.50
2023-05-20T03:05:14.763Z,1.95
2023-05-20T03:07:41.938Z,5.32
2023-05-20T03:10:09.730Z,2.78
2023-05-20T03:12:39.233Z,2.10
2023-05-20T03:15:11.043Z,1.55
2023-05-20T03:17:38.369Z,6.13
2023-05-20T03:20:07.513Z,2.03
2023-05-20T03:22:40.376Z,3.08
2023-05-20T03:25:07.960Z,2.17
2023-05-20T03:27:38.324Z,2.55
2023-05-20T03:30:06.579Z,2.38
2023-05-20T03:32:33.725Z,3.30
2023-05-20T03:35:01.242Z,2.15
2023-05-20T03:37:28.301Z,7.05
2023-05-20T03:39:55.785Z,2.72
2023-05-20T03:42:22.962Z,5.82
2023-05-20T03:44:51.036Z,3.75
2023-05-20T03:47:19.027Z,4.25
2023-05-20T03:49:46.445Z,2.72
2023-05-20T03:52:14.604Z,5.03
2023-05-20T03:54:41.887Z,4.05
2023-05-20T03:57:13.949Z,3.83
2023-05-20T03:59:41.330Z,2.63
2023-05-20T04:02:23.516Z,2.05
2023-05-20T04:04:53.196Z,3.47
2023-05-20T04:07:20.969Z,2.92
2023-05-20T04:09:48.127Z,1.52
2023-05-20T04:12:15.454Z,2.28
2023-05-20T04:14:42.561Z,1.55
2023-05-20T04:17:10.772Z,2.10
2023-05-20T04:19:38.471Z,3.88
2023-05-20T04:22:08.050Z,2.30
2023-05-20T04:24:35.344Z,2.10
2023-05-20T04:27:02.490Z,4.43
2023-05-20T04:29:30.286Z,3.28
2023-05-20T04:31:58.973Z,2.47
2023-05-20T04:34:27.093Z,3.67
2023-05-20T04:36:54.740Z,1.95
2023-05-20T04:39:21.981Z,6.25
2023-05-20T04:41:54.989Z,2.33
2023-05-20T04:44:24.900Z,2.92
2023-05-20T04:46:52.453Z,3.60
2023-05-20T04:49:20.010Z,2.92
2023-05-20T04:51:50.278Z,5.10
2023-05-20T04:54:21.321Z,3.35
2023-05-20T04:56:51.277Z,3.13
2023-05-20T04:59:21.287Z,2.97
2023-05-20T05:01:48.519Z,3.33
2023-05-20T05:04:15.926Z,5.30
2023-05-20T05:06:43.153Z,3.45
2023-05-20T05:09:10.811Z,3.17
2023-05-20T05:11:41.161Z,2.70
2023-05-20T05:14:08.801Z,4.68
2023-05-20T05:16:36.604Z,3.13
2023-05-20T05:19:03.824Z,4.07
2023-05-20T05:21:34.462Z,3.00
2023-05-20T05:24:01.899Z,3.63
2023-05-20T05:26:29.195Z,2.92
2023-05-20T05:28:56.850Z,4.25
2023-05-20T05:31:24.093Z,2.90
2023-05-20T05:33:51.440Z,3.05
2023-05-20T05:36:18.703Z,2.63
2023-05-20T05:38:46.139Z,8.40
2023-05-20T05:41:13.743Z,2.50
2023-05-20T05:43:41.104Z,3.22
2023-05-20T05:46:09.870Z,3.80
2023-05-20T05:48:38.981Z,4.53
2023-05-20T05:51:06.192Z,2.70
2023-05-20T05:53:34.009Z,2.10
2023-05-20T05:56:04.185Z,3.80
2023-05-20T05:58:31.404Z,3.33
2023-05-20T06:00:58.934Z,2.83
2023-05-20T06:03:26.323Z,6.57
2023-05-20T06:05:56.100Z,2.50
2023-05-20T06:08:23.163Z,2.58
2023-05-20T06:10:50.908Z,2.28
2023-05-20T06:13:18.677Z,2.45
2023-05-20T06:15:46.444Z,3.42
2023-05-20T06:18:13.714Z,2.92
2023-05-20T06:20:41.309Z,2.90
2023-05-20T06:23:08.448Z,5.47
2023-05-20T06:25:44.171Z,3.35
2023-05-20T06:28:12.841Z,2.03
2023-05-20T06:30:40.066Z,2.75
2023-05-20T06:33:07.377Z,2.70
2023-05-20T06:35:35.926Z,7.20
2023-05-20T06:38:05.151Z,8.93
2023-05-20T06:40:32.294Z,5.40
2023-05-20T06:42:59.593Z,3.60
2023-05-20T06:45:46.793Z,2.92
2023-05-20T06:48:28.441Z,2.58
2023-05-20T06:51:00.568Z,5.45
2023-05-20T06:53:36.379Z,3.97
2023-05-20T06:56:04.693Z,5.25
2023-05-20T06:58:33.835Z,3.00
2023-05-20T07:01:04.599Z,3.30
2023-05-20T07:03:35.957Z,5.60
2023-05-20T07:06:08.261Z,4.47
2023-05-20T07:08:35.580Z,6.85
2023-05-20T07:11:05.032Z,5.32
2023-05-20T07:13:36.051Z,3.72
2023-05-20T07:16:09.925Z,4.35
2023-05-20T07:18:45.138Z,3.63
2023-05-20T07:21:15.135Z,6.57
2023-05-20T07:24:28.510Z,7.78
2023-05-20T07:27:01.769Z,7.72
2023-05-20T07:29:29.138Z,8.35
2023-05-20T07:31:59.126Z,2.83
2023-05-20T07:34:27.050Z,8.02
2023-05-20T07:37:02.012Z,8.48
2023-05-20T07:39:32.219Z,8.02
2023-05-20T07:41:59.626Z,7.53
2023-05-20T07:44:34.929Z,4.18
2023-05-20T07:47:14.845Z,5.10
2023-05-20T07:49:53.082Z,7.75
2023-05-20T07:52:22.896Z,6.25
2023-05-20T07:54:51.624Z,7.25
2023-05-20T07:57:19.586Z,10.00
2023-05-20T07:59:50.181Z,5.95
2023-05-20T08:02:18.013Z,7.57
2023-05-20T08:04:47.004Z,11.85
2023-05-20T08:07:17.231Z,3.28
2023-05-20T08:09:52.314Z,6.10
2023-05-20T08:12:21.607Z,12.90
2023-05-20T08:14:53.160Z,7.97
2023-05-20T08:17:22.107Z,8.77
2023-05-20T08:19:49.382Z,4.47
2023-05-20T08:22:16.852Z,8.15
2023-05-20T08:24:48.384Z,4.15
2023-05-20T08:27:20.434Z,9.95
2023-05-20T08:29:47.833Z,6.22
2023-05-20T08:32:15.491Z,5.43
2023-05-20T08:34:52.532Z,7.90
2023-05-20T08:37:19.694Z,7.10
2023-05-20T08:39:49.405Z,7.28
2023-05-20T08:42:28.026Z,6.07
2023-05-20T08:44:58.724Z,9.68
2023-05-20T08:47:27.292Z,8.73
2023-05-20T08:49:54.590Z,12.88
2023-05-20T08:52:27.807Z,4.43
2023-05-20T08:54:58.640Z,7.68
2023-05-20T08:57:29.270Z,6.15
2023-05-20T08:59:57.587Z,8.15
2023-05-20T09:02:24.681Z,4.22
2023-05-20T09:04:52.643Z,7.50
2023-05-20T09:07:29.435Z,4.75
2023-05-20T09:09:58.174Z,4.28
2023-05-20T09:12:25.506Z,6.05
2023-05-20T09:14:52.586Z,5.90
2023-05-20T09:17:22.292Z,4.00
2023-05-20T09:19:53.789Z,8.13
2023-05-20T09:22:25.733Z,7.50
2023-05-20T09:24:53.192Z,4.45
2023-05-20T09:27:24.968Z,3.75
2023-05-20T09:29:52.352Z,2.92
2023-05-20T09:32:24.223Z,3.10
2023-05-20T09:34:54.746Z,6.20
2023-05-20T09:37:27.625Z,10.60
2023-05-20T09:40:10.337Z,10.45
2023-05-20T09:42:44.577Z,7.50
2023-05-20T09:45:11.806Z,6.70
2023-05-20T09:47:42.588Z,7.65
2023-05-20T09:50:10.585Z,4.18
2023-05-20T09:52:39.102Z,8.60
2023-05-20T09:55:07.848Z,9.38
2023-05-20T09:57:35.906Z,11.50
2023-05-20T10:00:08.979Z,9.48
2023-05-20T10:02:56.863Z,6.93
2023-05-20T10:05:29.793Z,9.70
2023-05-20T10:08:33.013Z,10.33
2023-05-20T10:11:36.875Z,3.85
2023-05-20T10:14:29.212Z,8.85
2023-05-20T10:17:20.704Z,10.73
2023-05-20T10:19:50.065Z,4.93
2023-05-20T10:22:31.897Z,6.40
2023-05-20T10:25:00.742Z,10.15
2023-05-20T10:27:28.072Z,6.47
2023-05-20T10:30:00.883Z,6.00
2023-05-20T10:32:32.556Z,3.50
2023-05-20T10:35:02.040Z,6.90
2023-05-20T10:37:33.257Z,4.20
2023-05-20T10:40:06.130Z,10.05
2023-05-20T10:42:33.523Z,3.05
2023-05-20T10:45:00.752Z,9.35
2023-05-20T10:47:27.974Z,3.67
2023-05-20T10:49:55.784Z,7.75
2023-05-20T10:52:24.630Z,7.32
2023-05-20T10:54:56.138Z,5.43
2023-05-20T10:57:24.460Z,9.05
2023-05-20T10:59:51.893Z,6.15
2023-05-20T11:02:20.333Z,4.18
2023-05-20T11:04:48.036Z,6.78
2023-05-20T11:07:29.403Z,7.65
2023-05-20T11:09:59.428Z,19.15
2023-05-20T11:12:35.617Z,4.90
2023-05-20T11:15:03.832Z,7.57
2023-05-20T11:17:31.264Z,4.75
2023-05-20T11:20:01.146Z,4.13
2023-05-20T11:22:28.506Z,3.95
2023-05-20T11:24:55.633Z,3.70
2023-05-20T11:27:23.050Z,4.15
2023-05-20T11:29:51.249Z,7.70
2023-05-20T11:32:21.674Z,4.40
2023-05-20T11:34:52.358Z,13.70
2023-05-20T11:37:20.323Z,4.60
2023-05-20T11:39:47.563Z,5.32
2023-05-20T11:42:17.886Z,9.43
2023-05-20T11:44:45.499Z,5.00
2023-05-20T11:47:12.588Z,9.95
2023-05-20T11:49:40.759Z,5.50
2023-05-20T11:52:09.960Z,8.60
2023-05-20T11:54:37.392Z,7.20
2023-05-20T11:57:06.886Z,7.45
2023-05-20T11:59:34.865Z,9.60
2023-05-20T12:02:01.990Z,8.35
2023-05-20T12:04:29.617Z,12.02
2023-05-20T12:06:56.985Z,6.05
2023-05-20T12:09:24.880Z,9.27
2023-05-20T12:11:52.044Z,6.57
2023-05-20T12:14:19.587Z,9.35
2023-05-20T12:16:48.589Z,10.25
2023-05-20T12:19:21.257Z,8.40
2023-05-20T12:21:50.910Z,9.10
2023-05-20T12:24:19.885Z,11.80
2023-05-20T12:26:47.120Z,9.63
2023-05-20T12:29:14.356Z,10.20
2023-05-20T12:31:41.605Z,8.98
2023-05-20T12:34:08.816Z,10.30
2023-05-20T12:36:35.893Z,5.55
2023-05-20T12:39:03.378Z,5.97
2023-05-20T12:41:33.853Z,6.65
2023-05-20T12:44:01.232Z,8.10
2023-05-20T12:46:28.330Z,13.13
2023-05-20T12:48:56.089Z,12.15
2023-05-20T12:51:23.301Z,8.38
2023-05-20T12:53:50.470Z,7.63
2023-05-20T12:56:18.061Z,10.85
2023-05-20T12:58:46.324Z,13.07
2023-05-20T13:01:13.526Z,8.63
2023-05-20T13:03:40.791Z,6.43
2023-05-20T13:06:11.112Z,10.55
2023-05-20T13:08:38.301Z,12.93
2023-05-20T13:11:05.479Z,11.02
2023-05-20T13:13:32.741Z,11.38
2023-05-20T13:15:59.877Z,11.98
2023-05-20T13:18:27.372Z,10.95
2023-05-20T13:20:57.330Z,10.40
2023-05-20T13:23:27.227Z,10.10
2023-05-20T13:25:54.595Z,13.95
2023-05-20T13:28:22.312Z,10.95
2023-05-20T13:30:50.425Z,13.05
2023-05-20T13:33:17.484Z,7.38
2023-05-20T13:35:44.673Z,7.28
2023-05-20T13:38:12.500Z,8.65
2023-05-20T13:40:39.615Z,6.05
2023-05-20T13:43:06.712Z,8.40
2023-05-20T13:45:33.883Z,16.13
2023-05-20T13:48:01.097Z,6.82
2023-05-20T13:50:28.215Z,9.40
2023-05-20T13:52:55.516Z,7.25
2023-05-20T13:55:24.707Z,7.70
2023-05-20T13:57:58.420Z,7.55
2023-05-20T14:00:25.741Z,8.95
2023-05-20T14:02:56.648Z,9.73
2023-05-20T14:05:25.064Z,8.25
2023-05-20T14:07:52.241Z,9.73
2023-05-20T14:10:22.118Z,7.72
2023-05-20T14:12:50.012Z,8.05
2023-05-20T14:15:17.216Z,6.70
2023-05-20T14:17:44.837Z,6.45
2023-05-20T14:20:12.623Z,7.60
2023-05-20T14:22:39.743Z,11.00
2023-05-20T14:25:07.437Z,10.85
2023-05-20T14:27:34.878Z,13.70
2023-05-20T14:30:02.031Z,8.73
2023-05-20T14:32:29.628Z,9.90
2023-05-20T14:34:56.816Z,6.80
2023-05-20T14:37:24.074Z,13.73
2023-05-20T14:39:51.245Z,12.82
2023-05-20T14:42:23.727Z,8.77
2023-05-20T14:44:54.758Z,11.52
2023-05-20T14:47:22.687Z,5.95
2023-05-20T14:49:56.396Z,10.90
2023-05-20T14:52:44.276Z,9.73
2023-05-20T14:55:20.802Z,6.03
2023-05-20T14:57:53.976Z,7.97
2023-05-20T15:00:36.316Z,11.13
2023-05-20T15:03:11.256Z,8.20
2023-05-20T15:05:44.576Z,8.60
2023-05-20T15:08:18.323Z,7.72
2023-05-20T15:11:05.918Z,12.27
2023-05-20T15:13:57.566Z,10.27
2023-05-20T15:16:28.145Z,8.60
2023-05-20T15:18:58.191Z,6.40
2023-05-20T15:21:31.822Z,5.82
2023-05-20T15:26:35.907Z,11.52
2023-05-20T15:29:05.368Z,6.90
2023-05-20T15:31:37.169Z,7.78
2023-05-20T15:34:10.128Z,8.52
2023-05-20T15:36:40.432Z,11.70
2023-05-20T15:39:13.819Z,7.35
2023-05-20T15:41:42.531Z,6.95
2023-05-20T15:44:09.799Z,9.15
2023-05-20T15:46:44.153Z,12.63
2023-05-20T15:49:12.820Z,5.32
2023-05-20T15:51:41.126Z,6.35
2023-05-20T15:54:14.972Z,8.32
2023-05-20T15:56:42.090Z,9.98
2023-05-20T15:59:09.288Z,8.07
2023-05-20T16:01:42.352Z,7.68
2023-05-20T16:04:18.073Z,6.93
2023-05-20T16:09:26.597Z,5.93
2023-05-20T16:11:56.252Z,3.40
2023-05-20T16:17:04.505Z,6.78
2023-05-20T16:19:34.109Z,8.70
2023-05-20T16:22:01.693Z,8.38
2023-05-20T16:24:28.778Z,8.75
2023-05-20T16:26:56.349Z,8.95
2023-05-20T16:29:25.552Z,5.45
2023-05-20T16:31:53.193Z,12.40
2023-05-20T16:34:20.489Z,4.15
2023-05-20T16:36:47.764Z,7.60
2023-05-20T16:39:16.086Z,4.25
2023-05-20T16:41:43.661Z,6.65
2023-05-20T16:44:21.333Z,4.57
2023-05-20T16:46:48.532Z,5.65
2023-05-20T16:49:17.982Z,8.43
2023-05-20T16:51:45.299Z,5.53
2023-05-20T16:54:12.496Z,7.32
2023-05-20T16:56:39.726Z,4.28
2023-05-20T16:59:06.981Z,5.82
2023-05-20T17:01:34.321Z,6.72
2023-05-20T17:04:01.617Z,5.97
2023-05-20T17:06:28.938Z,3.63
2023-05-20T17:08:59.229Z,6.28
2023-05-20T17:11:31.529Z,4.45
2023-05-20T17:13:59.421Z,10.10
2023-05-20T17:16:29.452Z,6.65
2023-05-20T17:18:57.877Z,6.88
2023-05-20T17:21:25.250Z,7.60
2023-05-20T17:23:52.419Z,5.32
2023-05-20T17:26:19.611Z,10.88
2023-05-20T17:28:46.773Z,10.65
2023-05-20T17:31:14.157Z,4.95
2023-05-20T17:33:41.374Z,4.35
2023-05-20T17:36:08.657Z,6.82
2023-05-20T17:38:36.218Z,7.03
2023-05-20T17:41:03.792Z,9.48
2023-05-20T17:43:31.341Z,7.93
2023-05-20T17:45:58.633Z,6.05
2023-05-20T17:48:26.590Z,7.40
2023-05-20T17:50:56.756Z,8.00
2023-05-20T17:53:26.941Z,5.32
2023-05-20T17:55:54.397Z,8.13
2023-05-20T17:58:25.000Z,6.50
2023-05-20T18:00:52.753Z,6.30
2023-05-20T18:03:20.559Z,10.80
2023-05-20T18:05:47.963Z,9.02
2023-05-20T18:08:15.129Z,13.10
2023-05-20T18:10:42.644Z,6.47
2023-05-20T18:13:10.119Z,4.57
2023-05-20T18:15:37.482Z,8.63
2023-05-20T18:18:04.970Z,6.55
2023-05-20T18:20:32.460Z,11.50
2023-05-20T18:22:59.630Z,9.57
2023-05-20T18:25:26.924Z,9.10
2023-05-20T18:28:00.075Z,8.80
2023-05-20T18:30:27.461Z,5.90
2023-05-20T18:32:57.707Z,8.48
2023-05-20T18:35:24.877Z,8.10
2023-05-20T18:37:52.065Z,9.43
2023-05-20T18:40:22.159Z,6.93
2023-05-20T18:42:52.456Z,6.85
2023-05-20T18:45:22.780Z,8.88
2023-05-20T18:47:54.567Z,8.00
2023-05-20T18:50:21.921Z,5.05
2023-05-20T18:52:50.107Z,11.15
2023-05-20T18:55:17.370Z,4.90
2023-05-20T18:57:44.703Z,9.27
2023-05-20T19:00:12.715Z,7.10
2023-05-20T19:02:40.868Z,5.65
2023-05-20T19:05:11.429Z,7.18
2023-05-20T19:07:39.202Z,7.40
2023-05-20T19:10:07.099Z,8.38
2023-05-20T19:12:34.273Z,9.68
2023-05-20T19:15:01.666Z,10.85
2023-05-20T19:17:28.935Z,9.60
2023-05-20T19:19:56.338Z,6.90
2023-05-20T19:22:23.520Z,11.80
2023-05-20T19:24:50.920Z,7.05
2023-05-20T19:27:18.231Z,14.13
2023-05-20T19:29:45.280Z,13.90
2023-05-20T19:32:12.474Z,9.50
2023-05-20T19:34:43.329Z,8.52
2023-05-20T19:37:13.420Z,9.70
2023-05-20T19:39:40.845Z,8.77
2023-05-20T19:42:08.236Z,11.35
2023-05-20T19:44:38.780Z,5.68
2023-05-20T19:47:08.491Z,6.55
2023-05-20T19:49:39.925Z,6.70
2023-05-20T19:52:07.684Z,9.68
2023-05-20T19:54:34.906Z,12.38
2023-05-20T19:57:02.238Z,10.95
2023-05-20T19:59:32.243Z,11.90
2023-05-20T20:02:03.483Z,7.63
2023-05-20T20:04:30.750Z,9.75
2023-05-20T20:07:01.106Z,20.38
2023-05-20T20:09:31.478Z,19.17
2023-05-20T20:12:00.463Z,17.83
2023-05-20T20:14:29.610Z,7.07
2023-05-20T20:17:00.056Z,8.60
2023-05-20T20:19:29.918Z,7.97
2023-05-20T20:22:00.350Z,9.13
2023-05-20T20:24:27.574Z,10.13
2023-05-20T20:26:58.389Z,6.78
2023-05-20T20:29:28.522Z,7.80
2023-05-20T20:31:58.529Z,10.45
2023-05-20T20:34:28.910Z,7.43
2023-05-20T20:37:01.711Z,9.00
2023-05-20T20:39:45.541Z,8.13
2023-05-20T20:42:12.743Z,9.30
2023-05-20T20:44:42.876Z,7.40
2023-05-20T20:47:14.976Z,5.18
2023-05-20T20:49:42.321Z,5.88
2023-05-20T20:52:15.060Z,8.07
2023-05-20T20:54:43.349Z,10.07
2023-05-20T20:57:23.255Z,10.65
2023-05-20T20:59:58.000Z,6.45
2023-05-20T21:02:25.281Z,16.15
2023-05-20T21:04:52.463Z,7.45
2023-05-20T21:07:25.751Z,9.63
2023-05-20T21:09:55.804Z,9.47
2023-05-20T21:12:26.537Z,7.78
2023-05-20T21:14:53.676Z,7.88
2023-05-20T21:17:23.993Z,7.30
2023-05-20T21:19:55.000Z,8.98
2023-05-20T21:22:29.260Z,6.95
2023-05-20T21:24:58.802Z,10.38
2023-05-20T21:27:26.185Z,12.65
2023-05-20T21:30:05.212Z,8.57
2023-05-20T21:32:32.565Z,9.77
2023-05-20T21:35:00.939Z,8.00
2023-05-20T21:37:34.277Z,8.93
2023-05-20T21:40:02.146Z,12.80
2023-05-20T21:42:37.153Z,6.13
2023-05-20T21:45:09.458Z,8.75
2023-05-20T21:47:37.045Z,11.23
2023-05-20T21:50:21.334Z,8.23
2023-05-20T21:52:56.396Z,8.48
2023-05-20T21:55:24.063Z,10.63
2023-05-20T21:57:51.443Z,9.52
2023-05-20T22:00:20.820Z,8.77
2023-05-20T22:02:49.120Z,8.15
2023-05-20T22:05:17.399Z,7.38
2023-05-20T22:07:44.930Z,7.32
2023-05-20T22:10:13.886Z,10.23
2023-05-20T22:12:44.666Z,10.85
2023-05-20T22:15:12.657Z,10.63
2023-05-20T22:17:45.250Z,11.05
2023-05-20T22:20:12.968Z,15.50
2023-05-20T22:22:40.175Z,13.35
2023-05-20T22:25:07.718Z,8.15
2023-05-20T22:27:35.251Z,10.25
2023-05-20T22:30:05.288Z,12.40
2023-05-20T22:32:36.196Z,9.48
2023-05-20T22:35:05.057Z,10.38
2023-05-20T22:37:35.577Z,11.50
2023-05-20T22:40:03.954Z,14.95
2023-05-20T22:42:31.212Z,12.02
2023-05-20T22:44:58.679Z,13.73
2023-05-20T22:47:25.849Z,7.75
2023-05-20T22:49:57.967Z,10.57
2023-05-20T22:52:28.289Z,16.33
2023-05-20T22:54:56.977Z,6.60
2023-05-20T22:57:25.558Z,11.80
2023-05-20T22:59:54.095Z,15.20
2023-05-20T23:02:28.068Z,13.23
2023-05-20T23:04:55.277Z,12.63
2023-05-20T23:07:22.652Z,11.90
2023-05-20T23:09:50.020Z,13.27
2023-05-20T23:12:17.392Z,10.60
2023-05-20T23:14:44.688Z,13.30
2023-05-20T23:17:12.041Z,13.55
2023-05-20T23:19:42.031Z,13.93
2023-05-20T23:22:09.325Z,15.77
2023-05-20T23:24:36.914Z,9.63
2023-05-20T23:27:04.694Z,9.27
2023-05-20T23:29:32.341Z,9.57
2023-05-20T23:32:02.912Z,10.02
2023-05-20T23:34:33.596Z,13.07
2023-05-20T23:37:00.791Z,8.32
2023-05-20T23:39:28.443Z,11.20
2023-05-20T23:41:58.847Z,12.45
2023-05-20T23:44:29.394Z,7.95
2023-05-20T23:46:56.660Z,9.13
2023-05-20T23:49:27.334Z,9.75
2023-05-20T23:51:54.660Z,9.95
2023-05-20T23:54:23.163Z,6.47
2023-05-20T23:56:51.754Z,9.18
2023-05-20T23:59:19.226Z,7.55
